Time;durP1;ratioP1;P1;durP2;ratioP2;P2;SDS_P1;SDS_P2;PMS_P1;PMS_P2;Temp;Humidity;BMP_temperature;BMP_pressure;BME280_temperature;BME280_humidity;BME280_pressure;Samples;Min_cycle;Max_cycle;Signal;HPM_P1;HPM_P2
2021/05/18 00:01:09;;;;;;;10.68;6.10;;;;;;;;;;5087467;28;20476;-84
2021/05/18 00:03:36;;;;;;;11.43;6.25;;;;;;;;;;5070693;28;20396;-84
2021/05/18 00:06:02;;;;;;;10.98;5.72;;;;;;;;;;5071763;28;20045;-84
2021/05/18 00:08:29;;;;;;;14.43;5.78;;;;;;;;;;5070828;28;20036;-84
2021/05/18 00:13:41;;;;;;;9.77;5.55;;;;;;;;;;5085029;28;20381;-83
2021/05/18 00:16:07;;;;;;;10.45;5.32;;;;;;;;;;5087174;28;20035;-83
2021/05/18 00:18:34;;;;;;;7.40;5.30;;;;;;;;;;5087194;28;20067;-84
2021/05/18 00:21:02;;;;;;;9.55;5.72;;;;;;;;;;5087127;28;20123;-83
2021/05/18 00:23:28;;;;;;;11.25;5.78;;;;;;;;;;5070641;28;20108;-84
2021/05/18 00:25:54;;;;;;;10.85;5.97;;;;;;;;;;5070410;28;20091;-83
2021/05/18 00:28:20;;;;;;;9.70;6.07;;;;;;;;;;5070281;28;20045;-84
2021/05/18 00:30:46;;;;;;;11.55;5.43;;;;;;;;;;5071657;28;20051;-84
2021/05/18 00:33:17;;;;;;;12.40;6.60;;;;;;;;;;5087154;28;20037;-84
2021/05/18 00:35:44;;;;;;;11.45;5.53;;;;;;;;;;5086860;28;20040;-84
2021/05/18 00:38:11;;;;;;;9.48;6.03;;;;;;;;;;5070450;28;20040;-89
2021/05/18 00:40:37;;;;;;;11.10;6.28;;;;;;;;;;5087175;28;20128;-84
2021/05/18 00:43:04;;;;;;;8.82;5.55;;;;;;;;;;5086937;28;20037;-84
2021/05/18 00:45:42;;;;;;;11.15;6.30;;;;;;;;;;5086893;28;20048;-84
2021/05/18 00:48:09;;;;;;;8.90;5.15;;;;;;;;;;5070169;28;20045;-83
2021/05/18 00:50:36;;;;;;;9.05;5.57;;;;;;;;;;5087028;28;20040;-84
2021/05/18 00:53:02;;;;;;;8.75;6.10;;;;;;;;;;5070337;28;20036;-83
2021/05/18 01:00:38;;;;;;;10.07;5.68;;;;;;;;;;5084924;28;20511;-83
2021/05/18 01:03:05;;;;;;;10.80;6.32;;;;;;;;;;5090554;28;20068;-83
2021/05/18 01:08:15;;;;;;;11.93;5.70;;;;;;;;;;5087955;28;20037;-84
2021/05/18 01:10:41;;;;;;;11.35;6.25;;;;;;;;;;5073549;28;20483;-84
2021/05/18 01:13:07;;;;;;;10.60;6.43;;;;;;;;;;5090319;28;20036;-85
2021/05/18 01:15:34;;;;;;;10.95;6.00;;;;;;;;;;5090311;28;20037;-85
2021/05/18 01:17:59;;;;;;;9.45;5.70;;;;;;;;;;5090250;28;20502;-84
2021/05/18 01:20:27;;;;;;;10.18;5.90;;;;;;;;;;5074642;28;20041;-83
2021/05/18 01:22:53;;;;;;;8.55;5.90;;;;;;;;;;5074474;28;20036;-83
2021/05/18 01:25:20;;;;;;;11.57;6.22;;;;;;;;;;5074589;28;20037;-83
2021/05/18 01:27:46;;;;;;;12.10;6.35;;;;;;;;;;5090049;28;20372;-83
2021/05/18 01:30:12;;;;;;;12.82;6.53;;;;;;;;;;5074420;28;20106;-83
2021/05/18 01:32:42;;;;;;;10.13;6.32;;;;;;;;;;5073161;28;20034;-84
2021/05/18 01:35:09;;;;;;;10.07;5.63;;;;;;;;;;5074450;28;20072;-84
2021/05/18 01:37:35;;;;;;;11.38;5.40;;;;;;;;;;5089542;28;20571;-83
2021/05/18 01:42:46;;;;;;;11.65;6.38;;;;;;;;;;5090102;28;20427;-83
2021/05/18 01:42:54;;;;;;;11.25;6.55;;;;;;;;;;5084614;28;20048;-84
2021/05/18 01:45:22;;;;;;;13.15;7.18;;;;;;;;;;5089616;28;20043;-84
2021/05/18 01:47:53;;;;;;;9.10;5.65;;;;;;;;;;5089478;28;20111;-84
2021/05/18 01:50:20;;;;;;;9.80;5.80;;;;;;;;;;5074114;28;20036;-85
2021/05/18 01:52:46;;;;;;;10.90;6.32;;;;;;;;;;5089631;28;20064;-84
2021/05/18 01:55:14;;;;;;;11.15;5.97;;;;;;;;;;5072724;28;20555;-84
2021/05/18 01:57:41;;;;;;;9.85;6.28;;;;;;;;;;5072599;28;20041;-85
2021/05/18 02:00:07;;;;;;;13.63;6.28;;;;;;;;;;5089456;28;20041;-84
2021/05/18 02:02:33;;;;;;;10.40;6.80;;;;;;;;;;5089415;28;20041;-83
2021/05/18 02:05:01;;;;;;;13.63;7.78;;;;;;;;;;5089319;28;20036;-84
2021/05/18 02:07:31;;;;;;;10.63;7.00;;;;;;;;;;5072451;28;20498;-83
2021/05/18 02:09:58;;;;;;;16.63;7.37;;;;;;;;;;5072557;28;20123;-84
2021/05/18 02:12:25;;;;;;;12.88;6.65;;;;;;;;;;5089070;28;20293;-84
2021/05/18 02:14:59;;;;;;;12.93;6.80;;;;;;;;;;5088993;28;20048;-84
2021/05/18 02:17:44;;;;;;;13.57;7.05;;;;;;;;;;5072076;28;20095;-84
2021/05/18 02:25:41;;;;;;;11.25;6.15;;;;;;;;;;5086586;28;20040;-84
2021/05/18 02:28:08;;;;;;;14.63;6.88;;;;;;;;;;5088846;28;20373;-84
2021/05/18 02:30:36;;;;;;;14.10;7.20;;;;;;;;;;5088996;28;20064;-85
2021/05/18 02:33:03;;;;;;;11.02;6.28;;;;;;;;;;5071940;28;20038;-85
2021/05/18 02:35:29;;;;;;;14.82;7.45;;;;;;;;;;5088554;28;20102;-84
2021/05/18 02:37:55;;;;;;;11.60;6.38;;;;;;;;;;5088318;28;20492;-84
2021/05/18 02:40:23;;;;;;;13.30;7.13;;;;;;;;;;5088641;28;20036;-84
2021/05/18 02:42:49;;;;;;;11.48;6.53;;;;;;;;;;5088427;28;20068;-84
2021/05/18 02:50:35;;;;;;;13.18;6.50;;;;;;;;;;5086164;28;20119;-84
2021/05/18 02:53:01;;;;;;;13.27;7.00;;;;;;;;;;5071536;28;20069;-84
2021/05/18 02:55:36;;;;;;;12.95;7.30;;;;;;;;;;5071553;28;20540;-84
2021/05/18 02:58:03;;;;;;;12.77;6.95;;;;;;;;;;5071336;28;20037;-84
2021/05/18 03:00:29;;;;;;;10.93;6.68;;;;;;;;;;5071443;28;20032;-84
2021/05/18 03:02:55;;;;;;;12.68;6.82;;;;;;;;;;5088149;28;20089;-84
2021/05/18 03:05:24;;;;;;;12.30;6.72;;;;;;;;;;5088150;28;20048;-84
2021/05/18 03:07:51;;;;;;;10.75;6.35;;;;;;;;;;5071301;28;20048;-83
2021/05/18 03:10:17;;;;;;;14.15;6.03;;;;;;;;;;5071340;28;20044;-83
2021/05/18 03:12:43;;;;;;;11.90;6.50;;;;;;;;;;5072491;28;20090;-82
2021/05/18 03:15:10;;;;;;;12.88;7.10;;;;;;;;;;5088207;28;20032;-83
2021/05/18 03:17:36;;;;;;;12.80;6.25;;;;;;;;;;5072377;28;20037;-83
2021/05/18 03:20:07;;;;;;;11.57;6.75;;;;;;;;;;5087841;28;20044;-83
2021/05/18 03:22:33;;;;;;;11.98;6.68;;;;;;;;;;5087921;28;20114;-84
2021/05/18 03:25:00;;;;;;;13.80;7.03;;;;;;;;;;5087281;28;20369;-84
2021/05/18 03:27:29;;;;;;;12.98;7.20;;;;;;;;;;5087696;28;20480;-84
2021/05/18 03:29:59;;;;;;;10.20;6.10;;;;;;;;;;5070959;28;20032;-84
2021/05/18 03:35:10;;;;;;;10.75;6.15;;;;;;;;;;5072466;28;20115;-84
2021/05/18 03:37:47;;;;;;;13.25;6.72;;;;;;;;;;5087452;28;20453;-83
2021/05/18 03:40:15;;;;;;;12.55;6.40;;;;;;;;;;5070936;28;20542;-83
2021/05/18 03:42:46;;;;;;;13.15;6.65;;;;;;;;;;5071064;28;20334;-84
2021/05/18 03:53:33;;;;;;;9.13;5.80;;;;;;;;;;5085335;28;20068;-84
2021/05/18 03:59:04;;;;;;;13.13;7.13;;;;;;;;;;5071941;28;20448;-84
2021/05/18 04:04:42;;;;;;;13.27;7.30;;;;;;;;;;5049772;28;20037;-83
2021/05/18 04:12:50;;;;;;;12.80;6.78;;;;;;;;;;5070918;28;20048;-84
2021/05/18 04:18:14;;;;;;;12.98;6.57;;;;;;;;;;5071491;28;20116;-82
2021/05/18 04:21:19;;;;;;;9.95;5.88;;;;;;;;;;5070682;28;20040;-85
2021/05/18 04:23:46;;;;;;;14.10;6.68;;;;;;;;;;5081707;28;20049;-84
2021/05/18 04:26:33;;;;;;;11.60;6.90;;;;;;;;;;5070462;28;20045;-85
2021/05/18 05:01:18;;;;;;;22.83;9.20;;;;;;;;;;5088295;28;20364;-85
2021/05/18 05:09:35;;;;;;;15.55;7.75;;;;;;;;;;5051328;28;20430;-85
2021/05/18 05:12:38;;;;;;;13.60;7.07;;;;;;;;;;5089739;28;20071;-85
2021/05/18 05:15:03;;;;;;;18.08;9.25;;;;;;;;;;5085528;28;20045;-84
2021/05/18 05:17:29;;;;;;;14.75;7.63;;;;;;;;;;5073353;28;20041;-85
2021/05/18 05:19:55;;;;;;;13.50;7.55;;;;;;;;;;5090309;28;20039;-85
2021/05/18 05:22:21;;;;;;;15.80;8.05;;;;;;;;;;5072962;28;20137;-84
2021/05/18 05:24:47;;;;;;;13.73;7.85;;;;;;;;;;5073338;28;20082;-85
2021/05/18 05:27:15;;;;;;;13.02;7.00;;;;;;;;;;5090008;28;20049;-85
2021/05/18 05:29:41;;;;;;;12.05;7.25;;;;;;;;;;5073263;28;20115;-85
2021/05/18 05:32:07;;;;;;;11.68;6.25;;;;;;;;;;5090064;28;20120;-85
2021/05/18 05:34:33;;;;;;;13.05;7.68;;;;;;;;;;5074321;28;20036;-85
2021/05/18 05:36:59;;;;;;;11.63;6.60;;;;;;;;;;5056158;28;20059;-85
2021/05/18 05:39:25;;;;;;;12.38;6.93;;;;;;;;;;5073049;28;20075;-85
2021/05/18 05:41:51;;;;;;;11.32;6.90;;;;;;;;;;5089784;28;20040;-84
2021/05/18 05:44:18;;;;;;;13.73;7.82;;;;;;;;;;5089852;28;20038;-85
2021/05/18 05:46:44;;;;;;;12.73;7.03;;;;;;;;;;5072447;28;20036;-85
2021/05/18 05:49:10;;;;;;;12.18;7.05;;;;;;;;;;5089534;28;20037;-85
2021/05/18 05:51:37;;;;;;;12.77;7.45;;;;;;;;;;5089538;28;20123;-85
2021/05/18 05:54:03;;;;;;;11.05;6.55;;;;;;;;;;5072761;28;20116;-85
2021/05/18 05:56:29;;;;;;;11.95;7.07;;;;;;;;;;5072601;28;20032;-85
2021/05/18 05:58:56;;;;;;;14.25;7.15;;;;;;;;;;5089348;28;20044;-85
2021/05/18 06:01:22;;;;;;;10.40;6.68;;;;;;;;;;5072709;28;20043;-85
2021/05/18 06:03:48;;;;;;;13.27;7.95;;;;;;;;;;5072719;28;20112;-84
2021/05/18 06:06:14;;;;;;;11.98;7.00;;;;;;;;;;5073515;28;20377;-84
2021/05/18 06:08:43;;;;;;;10.82;6.28;;;;;;;;;;5073638;28;20040;-86
2021/05/18 06:11:15;;;;;;;11.82;7.03;;;;;;;;;;5072443;28;20261;-85
2021/05/18 06:14:04;;;;;;;11.13;6.97;;;;;;;;;;5072369;28;20050;-85
2021/05/18 06:41:11;;;;;;;12.35;7.47;;;;;;;;;;5091798;28;20147;-85
2021/05/18 06:46:45;;;;;;;11.15;6.72;;;;;;;;;;5085275;28;20044;-84
2021/05/18 06:49:10;;;;;;;11.30;7.20;;;;;;;;;;5071608;28;20044;-85
2021/05/18 06:51:36;;;;;;;11.02;7.25;;;;;;;;;;5054789;28;20519;-85
2021/05/18 06:54:03;;;;;;;11.70;7.55;;;;;;;;;;5070767;28;20384;-84
2021/05/18 06:56:34;;;;;;;14.02;8.02;;;;;;;;;;5071477;28;20036;-84
2021/05/18 07:01:26;;;;;;;14.80;7.90;;;;;;;;;;5072568;28;20093;-83
2021/05/18 07:03:53;;;;;;;13.38;7.20;;;;;;;;;;5072684;28;20036;-85
2021/05/18 07:11:14;;;;;;;12.43;7.72;;;;;;;;;;5070813;28;20037;-89
2021/05/18 07:13:40;;;;;;;14.30;8.10;;;;;;;;;;5054447;28;20036;-85
2021/05/18 07:16:06;;;;;;;12.70;7.70;;;;;;;;;;5054222;28;20033;-85
2021/05/18 07:18:32;;;;;;;13.20;7.57;;;;;;;;;;5054112;28;20040;-84
2021/05/18 07:20:58;;;;;;;14.13;8.18;;;;;;;;;;5072170;28;20036;-84
2021/05/18 07:23:25;;;;;;;13.48;7.50;;;;;;;;;;5070727;28;20499;-84
2021/05/18 07:25:51;;;;;;;13.40;8.82;;;;;;;;;;5072144;28;20032;-84
2021/05/18 07:28:19;;;;;;;14.00;8.00;;;;;;;;;;5054262;28;20052;-84
2021/05/18 07:30:45;;;;;;;13.32;7.95;;;;;;;;;;5070732;28;20064;-84
2021/05/18 07:33:11;;;;;;;11.18;7.60;;;;;;;;;;5070825;28;20507;-86
2021/05/18 07:35:37;;;;;;;10.48;7.80;;;;;;;;;;5070788;28;20075;-85
2021/05/18 07:38:04;;;;;;;11.75;7.93;;;;;;;;;;5070850;28;20068;-85
2021/05/18 07:40:31;;;;;;;10.57;7.07;;;;;;;;;;5072118;28;20037;-85
2021/05/18 07:42:57;;;;;;;9.27;7.30;;;;;;;;;;5072144;28;20039;-85
2021/05/18 07:45:27;;;;;;;9.70;7.18;;;;;;;;;;5071115;28;20123;-84
2021/05/18 07:48:00;;;;;;;9.77;6.65;;;;;;;;;;5070889;28;20041;-85
2021/05/18 07:50:55;;;;;;;11.00;6.97;;;;;;;;;;5055079;28;20559;-86
2021/05/18 08:07:07;;;;;;;7.45;5.70;;;;;;;;;;5071630;28;20122;-84
2021/05/18 08:09:38;;;;;;;9.63;5.30;;;;;;;;;;5070884;28;20399;-85
2021/05/18 08:12:04;;;;;;;6.63;4.43;;;;;;;;;;5058806;28;20033;-85
2021/05/18 08:14:33;;;;;;;6.70;5.10;;;;;;;;;;5075730;28;20043;-85
2021/05/18 08:20:19;;;;;;;5.82;5.22;;;;;;;;;;5064180;28;20059;-87
2021/05/18 08:48:07;;;;;;;6.35;5.22;;;;;;;;;;5088448;28;20047;-85
2021/05/18 08:55:45;;;;;;;6.20;4.70;;;;;;;;;;5074936;28;20032;-84
2021/05/18 09:47:36;;;;;;;6.20;4.25;;;;;;;;;;5087512;28;20111;-84
2021/05/18 10:15:32;;;;;;;;;;;;;;;;;;5087200;28;20036;-85
2021/05/18 10:38:22;;;;;;;4.45;3.00;;;;;;;;;;5072067;28;20133;-85
2021/05/18 10:40:48;;;;;;;4.68;3.17;;;;;;;;;;5087395;28;20113;-85
2021/05/18 10:43:18;;;;;;;3.55;2.85;;;;;;;;;;5088464;28;20082;-85
2021/05/18 10:46:06;;;;;;;4.38;2.80;;;;;;;;;;5071725;28;20036;-85
2021/05/18 10:48:32;;;;;;;7.53;2.83;;;;;;;;;;5073005;28;20072;-85
2021/05/18 10:50:58;;;;;;;2.88;2.35;;;;;;;;;;5072609;28;20048;-84
2021/05/18 10:53:28;;;;;;;2.90;2.08;;;;;;;;;;5088239;28;20071;-84
2021/05/18 10:56:07;;;;;;;10.07;2.72;;;;;;;;;;5071464;28;20038;-84
2021/05/18 10:58:33;;;;;;;2.63;2.40;;;;;;;;;;5071607;28;20080;-83
2021/05/18 11:01:00;;;;;;;3.72;2.70;;;;;;;;;;5071635;28;20101;-84
2021/05/18 11:03:26;;;;;;;4.25;2.80;;;;;;;;;;5071474;28;20036;-84
2021/05/18 11:05:52;;;;;;;2.60;2.28;;;;;;;;;;5072628;28;20063;-84
2021/05/18 11:08:18;;;;;;;2.88;2.38;;;;;;;;;;5071218;28;20064;-84
2021/05/18 11:10:45;;;;;;;4.22;3.08;;;;;;;;;;5071458;28;20043;-84
2021/05/18 11:13:11;;;;;;;3.13;2.83;;;;;;;;;;5071370;28;20048;-84
2021/05/18 11:15:37;;;;;;;3.20;2.90;;;;;;;;;;5071045;28;20032;-84
2021/05/18 11:18:03;;;;;;;4.25;2.95;;;;;;;;;;5072457;28;20044;-84
2021/05/18 11:25:50;;;;;;;3.65;3.08;;;;;;;;;;5071565;28;20085;-83
2021/05/18 11:28:17;;;;;;;2.92;2.70;;;;;;;;;;5054911;28;20048;-83
2021/05/18 11:30:44;;;;;;;5.22;2.85;;;;;;;;;;5071236;28;20341;-83
2021/05/18 11:33:10;;;;;;;3.40;2.65;;;;;;;;;;5071174;28;20041;-82
2021/05/18 11:35:37;;;;;;;2.42;2.22;;;;;;;;;;5071259;28;20446;-82
2021/05/18 11:38:04;;;;;;;1.92;1.70;;;;;;;;;;5072172;28;20076;-82
2021/05/18 11:40:30;;;;;;;3.80;1.70;;;;;;;;;;5071138;28;20037;-82
2021/05/18 11:42:56;;;;;;;1.55;1.45;;;;;;;;;;5071135;28;20545;-82
2021/05/18 11:45:22;;;;;;;2.50;1.90;;;;;;;;;;5071813;28;20036;-84
2021/05/18 11:47:50;;;;;;;3.45;1.95;;;;;;;;;;5070782;28;20044;-82
2021/05/18 11:50:20;;;;;;;6.30;2.75;;;;;;;;;;5071062;28;20033;-82
2021/05/18 11:52:46;;;;;;;2.88;2.50;;;;;;;;;;5072144;28;20037;-82
2021/05/18 11:55:31;;;;;;;2.88;2.15;;;;;;;;;;5072208;28;20063;-83
2021/05/18 11:57:57;;;;;;;2.08;1.85;;;;;;;;;;5072066;28;20621;-82
2021/05/18 12:00:24;;;;;;;4.22;2.53;;;;;;;;;;5054184;28;20115;-82
2021/05/18 12:03:00;;;;;;;3.70;2.20;;;;;;;;;;5071002;28;20040;-82
2021/05/18 12:05:26;;;;;;;2.80;2.50;;;;;;;;;;5070856;28;20041;-83
2021/05/18 12:07:52;;;;;;;3.22;2.60;;;;;;;;;;5072122;28;20117;-83
2021/05/18 12:10:28;;;;;;;3.90;2.75;;;;;;;;;;5054263;28;20040;-82
2021/05/18 12:12:54;;;;;;;2.80;2.50;;;;;;;;;;5071836;28;20040;-82
2021/05/18 12:15:20;;;;;;;3.22;2.78;;;;;;;;;;5072032;28;20036;-82
2021/05/18 12:17:46;;;;;;;3.63;3.15;;;;;;;;;;5071729;28;20033;-82
2021/05/18 12:20:16;;;;;;;8.32;4.32;;;;;;;;;;5070781;28;20040;-82
2021/05/18 12:22:42;;;;;;;4.80;3.47;;;;;;;;;;5069980;28;20036;-83
2021/05/18 12:25:09;;;;;;;6.72;4.18;;;;;;;;;;5087387;28;20044;-82
2021/05/18 12:27:45;;;;;;;6.20;4.03;;;;;;;;;;5070610;28;20127;-83
2021/05/18 12:30:11;;;;;;;5.82;4.38;;;;;;;;;;5087467;28;20037;-82
2021/05/18 12:32:45;;;;;;;6.22;4.05;;;;;;;;;;5087362;28;20063;-83
2021/05/18 12:35:17;;;;;;;5.97;3.67;;;;;;;;;;5070682;28;20071;-84
2021/05/18 12:37:45;;;;;;;4.32;3.80;;;;;;;;;;5071380;28;20057;-84
2021/05/18 12:40:17;;;;;;;5.30;4.50;;;;;;;;;;5087319;28;20052;-84
2021/05/18 12:42:43;;;;;;;6.15;4.30;;;;;;;;;;5071856;28;20041;-83
2021/05/18 12:45:27;;;;;;;6.30;4.22;;;;;;;;;;5071744;28;20044;-83
2021/05/18 12:47:54;;;;;;;5.18;4.20;;;;;;;;;;5070366;28;20238;-83
2021/05/18 12:50:20;;;;;;;4.70;3.90;;;;;;;;;;5087210;28;20369;-83
2021/05/18 12:52:53;;;;;;;6.38;4.30;;;;;;;;;;5070422;28;20046;-85
2021/05/18 12:55:26;;;;;;;6.13;3.88;;;;;;;;;;5087029;28;20044;-87
2021/05/18 12:57:59;;;;;;;4.78;3.95;;;;;;;;;;5071556;28;20066;-85
2021/05/18 13:00:25;;;;;;;5.57;4.43;;;;;;;;;;5057576;28;20132;-85
2021/05/18 13:02:53;;;;;;;3.92;2.90;;;;;;;;;;5073804;28;20076;-84
2021/05/18 13:05:20;;;;;;;3.33;2.75;;;;;;;;;;5057405;28;20487;-85
2021/05/18 13:08:05;;;;;;;4.70;2.80;;;;;;;;;;5073499;28;20409;-85
2021/05/18 13:13:12;;;;;;;4.35;2.40;;;;;;;;;;5073736;28;20040;-84
2021/05/18 13:15:38;;;;;;;3.22;2.65;;;;;;;;;;5073683;28;20062;-85
2021/05/18 13:18:05;;;;;;;3.95;2.70;;;;;;;;;;5074625;28;20050;-86
2021/05/18 13:20:46;;;;;;;2.78;2.40;;;;;;;;;;5056841;28;20461;-86
2021/05/18 13:23:21;;;;;;;2.60;2.20;;;;;;;;;;5073624;28;20064;-85
2021/05/18 13:28:32;;;;;;;3.42;2.20;;;;;;;;;;5074586;28;20575;-86
2021/05/18 13:30:58;;;;;;;2.38;1.77;;;;;;;;;;5073365;28;20072;-86
2021/05/18 13:33:24;;;;;;;2.90;2.00;;;;;;;;;;5056577;28;20476;-85
2021/05/18 13:35:50;;;;;;;2.70;2.28;;;;;;;;;;5073157;28;20036;-85
2021/05/18 13:38:17;;;;;;;2.72;2.50;;;;;;;;;;5072708;28;20500;-86
2021/05/18 13:40:44;;;;;;;4.38;3.15;;;;;;;;;;5074395;28;20071;-84
2021/05/18 13:43:10;;;;;;;3.60;3.30;;;;;;;;;;5073237;28;20064;-84
2021/05/18 13:45:37;;;;;;;3.85;3.35;;;;;;;;;;5072938;28;20043;-84
2021/05/18 13:48:05;;;;;;;3.10;2.10;;;;;;;;;;5072948;28;20043;-86
2021/05/18 13:50:31;;;;;;;3.17;2.25;;;;;;;;;;5072943;28;20128;-85
2021/05/18 13:52:57;;;;;;;4.32;3.05;;;;;;;;;;5072177;28;20037;-85
2021/05/18 13:55:23;;;;;;;5.30;3.00;;;;;;;;;;5056546;28;20075;-85
2021/05/18 13:57:50;;;;;;;4.30;3.30;;;;;;;;;;5073116;28;20060;-85
2021/05/18 14:00:16;;;;;;;6.05;3.92;;;;;;;;;;5072891;28;20108;-85
2021/05/18 14:02:43;;;;;;;4.35;3.47;;;;;;;;;;5072773;28;20098;-85
2021/05/18 14:05:16;;;;;;;5.60;3.00;;;;;;;;;;5089616;28;20045;-85
2021/05/18 14:08:03;;;;;;;3.72;3.17;;;;;;;;;;5072428;28;20431;-85
2021/05/18 14:10:29;;;;;;;4.68;3.47;;;;;;;;;;5071151;28;20048;-86
2021/05/18 14:12:55;;;;;;;3.90;3.40;;;;;;;;;;5072101;28;20032;-86
2021/05/18 14:15:21;;;;;;;3.40;2.95;;;;;;;;;;5055478;28;20127;-84
2021/05/18 14:17:47;;;;;;;3.80;3.35;;;;;;;;;;5072188;28;20032;-84
2021/05/18 14:20:13;;;;;;;3.35;3.03;;;;;;;;;;5072580;28;20044;-84
2021/05/18 14:22:39;;;;;;;3.72;2.95;;;;;;;;;;5072392;28;20448;-85
2021/05/18 14:25:06;;;;;;;4.88;2.97;;;;;;;;;;5072181;28;20062;-84
2021/05/18 14:27:36;;;;;;;3.63;3.08;;;;;;;;;;5073281;28;20036;-84
2021/05/18 14:30:02;;;;;;;3.67;3.25;;;;;;;;;;5055529;28;20131;-84
2021/05/18 14:32:29;;;;;;;4.05;3.28;;;;;;;;;;5055514;28;20107;-84
2021/05/18 14:34:55;;;;;;;3.80;3.40;;;;;;;;;;5063967;28;20094;-84
2021/05/18 14:37:23;;;;;;;4.13;3.38;;;;;;;;;;5068816;28;20068;-84
2021/05/18 14:39:59;;;;;;;4.78;3.50;;;;;;;;;;5052392;28;20350;-83
2021/05/18 14:45:11;;;;;;;4.40;3.42;;;;;;;;;;5053313;28;20037;-84
2021/05/18 14:55:38;;;;;;;3.10;2.80;;;;;;;;;;5051919;28;20185;-85
2021/05/18 14:58:04;;;;;;;4.05;3.20;;;;;;;;;;5051505;28;20380;-83
2021/05/18 15:00:30;;;;;;;3.53;2.78;;;;;;;;;;5052605;28;20044;-83
2021/05/18 15:02:56;;;;;;;4.63;2.80;;;;;;;;;;5051469;28;20099;-83
2021/05/18 15:05:25;;;;;;;4.97;3.35;;;;;;;;;;5052526;28;20044;-83
2021/05/18 15:07:51;;;;;;;5.13;4.03;;;;;;;;;;5051490;28;20033;-83
2021/05/18 15:10:17;;;;;;;4.63;3.78;;;;;;;;;;5052332;28;20492;-83
2021/05/18 15:12:43;;;;;;;3.88;3.22;;;;;;;;;;5052411;28;20044;-83
2021/05/18 15:15:10;;;;;;;4.03;3.60;;;;;;;;;;5050946;28;20441;-83
2021/05/18 15:17:36;;;;;;;4.35;3.78;;;;;;;;;;5050883;28;20036;-83
2021/05/18 15:20:02;;;;;;;7.75;4.85;;;;;;;;;;5050316;28;20037;-82
2021/05/18 15:22:30;;;;;;;4.97;4.45;;;;;;;;;;5052072;28;20036;-83
2021/05/18 15:24:56;;;;;;;6.53;4.95;;;;;;;;;;5051042;28;20116;-84
2021/05/18 15:27:25;;;;;;;7.35;4.90;;;;;;;;;;5050935;28;20048;-83
2021/05/18 15:29:51;;;;;;;6.25;5.00;;;;;;;;;;5051255;28;20045;-83
2021/05/18 15:32:17;;;;;;;6.70;5.15;;;;;;;;;;5053745;28;20081;-83
2021/05/18 15:34:43;;;;;;;5.78;5.00;;;;;;;;;;5050940;28;20036;-87
2021/05/18 15:37:09;;;;;;;8.25;6.25;;;;;;;;;;5050340;28;20041;-84
2021/05/18 15:39:36;;;;;;;6.32;5.32;;;;;;;;;;5050653;28;20041;-83
2021/05/18 15:42:04;;;;;;;8.30;6.25;;;;;;;;;;5050739;28;20051;-83
2021/05/18 15:44:30;;;;;;;10.27;6.40;;;;;;;;;;5050948;28;20033;-84
2021/05/18 15:46:56;;;;;;;10.65;6.10;;;;;;;;;;5050687;28;20045;-84
2021/05/18 15:49:24;;;;;;;8.45;6.13;;;;;;;;;;5050628;28;20072;-84
2021/05/18 15:51:50;;;;;;;8.65;6.53;;;;;;;;;;5050322;28;20033;-83
2021/05/18 15:54:16;;;;;;;7.85;6.53;;;;;;;;;;5065137;28;20112;-83
2021/05/18 15:56:42;;;;;;;10.23;6.93;;;;;;;;;;5071729;28;20075;-83
2021/05/18 15:59:08;;;;;;;10.50;6.78;;;;;;;;;;5053920;28;20049;-83
2021/05/18 16:01:34;;;;;;;8.60;6.47;;;;;;;;;;5070459;28;20045;-84
2021/05/18 16:04:00;;;;;;;7.60;5.93;;;;;;;;;;5072147;28;20111;-83
2021/05/18 16:06:32;;;;;;;10.70;6.70;;;;;;;;;;5074658;28;20042;-85
2021/05/18 16:08:58;;;;;;;10.30;7.07;;;;;;;;;;5054887;28;20048;-84
2021/05/18 16:11:25;;;;;;;9.40;7.40;;;;;;;;;;5054141;28;20067;-83
2021/05/18 16:13:51;;;;;;;8.52;6.65;;;;;;;;;;5070531;28;20452;-81
2021/05/18 16:16:17;;;;;;;11.13;7.63;;;;;;;;;;5070416;28;20072;-82
2021/05/18 16:18:44;;;;;;;12.43;7.72;;;;;;;;;;5071272;28;20048;-81
2021/05/18 16:21:11;;;;;;;10.38;7.38;;;;;;;;;;5071643;28;20056;-80
2021/05/18 16:23:40;;;;;;;10.48;7.45;;;;;;;;;;5070470;28;20094;-81
2021/05/18 16:26:06;;;;;;;9.63;7.00;;;;;;;;;;5053971;28;20384;-82
2021/05/18 16:28:32;;;;;;;10.80;7.38;;;;;;;;;;5069845;28;20389;-83
2021/05/18 16:30:58;;;;;;;11.40;7.70;;;;;;;;;;5067560;28;20110;-83
2021/05/18 16:33:27;;;;;;;10.38;7.55;;;;;;;;;;5072935;28;20407;-82
2021/05/18 16:35:53;;;;;;;11.05;8.00;;;;;;;;;;5075276;28;20036;-83
2021/05/18 16:38:19;;;;;;;14.75;8.10;;;;;;;;;;5073742;28;20059;-82
2021/05/18 16:40:48;;;;;;;12.40;7.88;;;;;;;;;;5075392;28;20032;-84
2021/05/18 16:43:14;;;;;;;12.65;8.30;;;;;;;;;;5057895;28;20071;-84
2021/05/18 16:45:40;;;;;;;11.27;8.70;;;;;;;;;;5073393;28;20456;-84
2021/05/18 16:48:06;;;;;;;13.25;8.60;;;;;;;;;;5074992;28;20070;-85
2021/05/18 16:50:32;;;;;;;12.43;8.93;;;;;;;;;;5090692;28;20036;-84
2021/05/18 16:52:58;;;;;;;13.30;8.80;;;;;;;;;;5075077;28;20349;-85
2021/05/18 16:55:24;;;;;;;11.65;8.25;;;;;;;;;;5090838;28;20040;-84
2021/05/18 16:57:51;;;;;;;11.88;8.10;;;;;;;;;;5090529;28;20068;-84
2021/05/18 17:00:17;;;;;;;15.60;9.13;;;;;;;;;;5090736;28;20040;-84
2021/05/18 17:02:43;;;;;;;11.70;7.55;;;;;;;;;;5073646;28;20514;-83
2021/05/18 17:05:09;;;;;;;12.43;8.60;;;;;;;;;;5090485;28;20480;-83
2021/05/18 17:07:35;;;;;;;14.52;8.13;;;;;;;;;;5090320;28;20033;-84
2021/05/18 17:10:02;;;;;;;14.65;8.57;;;;;;;;;;5074773;28;20051;-84
2021/05/18 17:12:28;;;;;;;14.15;8.63;;;;;;;;;;5090393;28;20059;-84
2021/05/18 17:14:54;;;;;;;15.43;8.65;;;;;;;;;;5090168;28;20496;-84
2021/05/18 17:17:20;;;;;;;19.27;9.65;;;;;;;;;;5074824;28;20373;-84
2021/05/18 17:19:46;;;;;;;22.35;10.70;;;;;;;;;;5090099;28;20047;-84
2021/05/18 17:22:13;;;;;;;16.52;9.93;;;;;;;;;;5073360;28;20040;-83
2021/05/18 17:24:39;;;;;;;17.15;10.27;;;;;;;;;;5090106;28;20032;-83
2021/05/18 17:27:05;;;;;;;18.13;10.85;;;;;;;;;;5074482;28;20444;-83
2021/05/18 17:29:31;;;;;;;13.73;9.15;;;;;;;;;;5074568;28;20036;-84
2021/05/18 17:31:58;;;;;;;17.13;10.85;;;;;;;;;;5089846;28;20099;-84
2021/05/18 17:34:24;;;;;;;13.52;8.63;;;;;;;;;;5056618;28;20111;-84
2021/05/18 17:36:51;;;;;;;15.18;8.50;;;;;;;;;;5089601;28;20045;-84
2021/05/18 17:39:18;;;;;;;17.23;9.48;;;;;;;;;;5074184;28;20037;-84
2021/05/18 17:41:44;;;;;;;13.77;9.02;;;;;;;;;;5073065;28;20033;-85
2021/05/18 17:44:11;;;;;;;14.23;7.88;;;;;;;;;;5088865;28;20044;-84
2021/05/18 17:46:37;;;;;;;15.75;9.48;;;;;;;;;;5072820;28;20094;-83
2021/05/18 17:49:04;;;;;;;15.75;8.63;;;;;;;;;;5073012;28;20094;-83
2021/05/18 17:51:33;;;;;;;14.43;8.85;;;;;;;;;;5072808;28;20400;-84
2021/05/18 17:53:59;;;;;;;15.88;10.05;;;;;;;;;;5072896;28;20047;-84
2021/05/18 17:56:27;;;;;;;16.05;9.23;;;;;;;;;;5072428;28;20116;-83
2021/05/18 17:58:53;;;;;;;13.55;9.15;;;;;;;;;;5088864;28;20037;-84
2021/05/18 18:01:20;;;;;;;15.18;9.68;;;;;;;;;;5089185;28;20399;-83
2021/05/18 18:03:46;;;;;;;18.75;12.52;;;;;;;;;;5072461;28;20032;-84
2021/05/18 18:06:12;;;;;;;19.00;14.85;;;;;;;;;;5072624;28;20071;-83
2021/05/18 18:08:41;;;;;;;16.15;10.93;;;;;;;;;;5055964;28;20041;-84
2021/05/18 18:11:08;;;;;;;14.80;9.02;;;;;;;;;;5072485;28;20048;-83
2021/05/18 18:13:34;;;;;;;15.93;9.45;;;;;;;;;;5072608;28;20055;-83
2021/05/18 18:16:02;;;;;;;14.25;9.88;;;;;;;;;;5089145;28;20032;-83
2021/05/18 18:18:28;;;;;;;12.52;8.60;;;;;;;;;;5072263;28;20071;-83
2021/05/18 18:20:55;;;;;;;16.90;10.02;;;;;;;;;;5072412;28;20409;-83
2021/05/18 18:23:21;;;;;;;14.85;9.10;;;;;;;;;;5072538;28;20070;-83
2021/05/18 18:25:47;;;;;;;18.02;9.55;;;;;;;;;;5088864;28;20063;-83
2021/05/18 18:28:17;;;;;;;14.60;9.80;;;;;;;;;;5088707;28;20040;-83
2021/05/18 18:30:43;;;;;;;16.52;9.90;;;;;;;;;;5072040;28;20103;-83
2021/05/18 18:33:09;;;;;;;17.80;10.43;;;;;;;;;;5088632;28;20090;-84
2021/05/18 18:35:35;;;;;;;17.95;10.23;;;;;;;;;;5071960;28;20115;-83
2021/05/18 18:38:01;;;;;;;19.35;9.95;;;;;;;;;;5071644;28;20179;-84
2021/05/18 18:40:27;;;;;;;18.20;10.88;;;;;;;;;;5088628;28;20043;-83
2021/05/18 18:42:53;;;;;;;18.08;11.20;;;;;;;;;;5071913;28;20396;-83
2021/05/18 18:45:21;;;;;;;17.33;10.07;;;;;;;;;;5072006;28;20048;-83
2021/05/18 18:47:47;;;;;;;16.48;9.90;;;;;;;;;;5071693;28;20109;-83
2021/05/18 18:50:14;;;;;;;18.90;10.95;;;;;;;;;;5088570;28;20037;-84
2021/05/18 18:52:47;;;;;;;17.83;10.15;;;;;;;;;;5055135;28;20040;-84
2021/05/18 18:55:14;;;;;;;16.98;10.18;;;;;;;;;;5038414;28;20048;-84
2021/05/18 18:57:40;;;;;;;19.10;10.20;;;;;;;;;;5071429;28;20032;-84
2021/05/18 19:00:07;;;;;;;21.42;10.98;;;;;;;;;;5071528;28;20043;-84
2021/05/18 19:02:53;;;;;;;19.52;11.07;;;;;;;;;;5071549;28;20051;-84
2021/05/18 19:08:23;;;;;;;14.38;9.13;;;;;;;;;;5071234;28;20036;-82
2021/05/18 19:11:16;;;;;;;14.40;9.68;;;;;;;;;;5057481;28;20426;-83
2021/05/18 19:13:36;;;;;;;17.83;9.52;;;;;;;;;;5070791;28;20047;-83
2021/05/18 19:16:02;;;;;;;20.08;11.52;;;;;;;;;;5054688;28;20040;-82
2021/05/18 19:18:28;;;;;;;19.58;11.77;;;;;;;;;;5054565;28;20090;-84
2021/05/18 19:20:54;;;;;;;17.42;10.93;;;;;;;;;;5072463;28;20044;-83
2021/05/18 19:23:23;;;;;;;21.75;10.82;;;;;;;;;;5071135;28;20550;-84
2021/05/18 19:25:49;;;;;;;20.58;10.73;;;;;;;;;;5071082;28;20040;-83
2021/05/18 19:28:17;;;;;;;17.85;9.48;;;;;;;;;;5070839;28;20043;-84